createdAt,value
2019-02-04T00:00:03.457Z,12.60
2019-02-04T00:02:32.696Z,14.93
2019-02-04T00:05:01.880Z,14.23
2019-02-04T00:07:30.998Z,14.93
2019-02-04T00:10:00.314Z,13.90
2019-02-04T00:12:29.531Z,13.83
2019-02-04T00:14:58.387Z,13.23
2019-02-04T00:17:27.212Z,15.10
2019-02-04T00:19:56.431Z,14.90
2019-02-04T00:22:25.345Z,14.20
2019-02-04T00:24:54.178Z,14.00
2019-02-04T00:27:23.399Z,13.07
2019-02-04T00:29:52.699Z,13.17
2019-02-04T00:32:21.858Z,12.90
2019-02-04T00:34:50.786Z,14.40
2019-02-04T00:37:19.575Z,12.90
2019-02-04T00:39:48.727Z,13.80
2019-02-04T00:42:17.551Z,16.77
2019-02-04T00:44:46.393Z,14.00
2019-02-04T00:47:15.378Z,13.93
2019-02-04T00:49:44.656Z,14.87
2019-02-04T00:52:13.529Z,13.87
2019-02-04T00:54:42.328Z,13.33
2019-02-04T00:57:11.240Z,15.20
2019-02-04T00:59:40.359Z,14.03
2019-02-04T01:02:09.332Z,15.07
2019-02-04T01:04:38.573Z,15.30
2019-02-04T01:07:07.789Z,16.27
2019-02-04T01:09:36.727Z,15.00
2019-02-04T01:12:05.824Z,14.03
2019-02-04T01:14:34.667Z,15.17
2019-02-04T01:17:03.875Z,13.43
2019-02-04T01:19:32.871Z,14.50
2019-02-04T01:22:01.753Z,13.23
2019-02-04T01:24:30.681Z,14.83
2019-02-04T01:26:59.484Z,13.67
2019-02-04T01:29:28.275Z,16.30
2019-02-04T01:31:57.174Z,14.20
2019-02-04T01:34:26.071Z,12.17
2019-02-04T01:36:54.960Z,14.80
2019-02-04T01:39:23.757Z,14.37
2019-02-04T01:41:52.679Z,15.60
2019-02-04T01:44:21.774Z,13.13
2019-02-04T01:46:51.640Z,13.70
2019-02-04T01:49:20.583Z,15.10
2019-02-04T01:51:49.401Z,13.30
2019-02-04T01:54:18.182Z,14.60
2019-02-04T01:56:47.027Z,14.47
2019-02-04T01:59:15.886Z,14.63
2019-02-04T02:01:45.095Z,12.23
2019-02-04T02:04:13.930Z,13.13
2019-02-04T02:06:42.826Z,13.63
2019-02-04T02:09:22.687Z,13.60
2019-02-04T02:11:51.615Z,13.97
2019-02-04T02:14:20.826Z,13.00
2019-02-04T02:16:50.101Z,12.90
2019-02-04T02:19:18.980Z,14.33
2019-02-04T02:21:47.783Z,12.50
2019-02-04T02:24:16.610Z,13.00
2019-02-04T02:26:45.510Z,12.60
2019-02-04T02:29:14.766Z,15.07
2019-02-04T02:31:43.625Z,12.27
2019-02-04T02:34:12.542Z,12.80
2019-02-04T02:36:41.439Z,12.53
2019-02-04T02:39:10.318Z,13.07
2019-02-04T02:41:39.156Z,12.90
2019-02-04T02:44:08.581Z,12.50
2019-02-04T02:46:37.752Z,12.87
2019-02-04T02:49:06.799Z,13.73
2019-02-04T02:51:35.612Z,12.27
2019-02-04T02:54:04.612Z,10.23
2019-02-04T02:56:33.453Z,11.07
2019-02-04T02:59:03.078Z,12.40
2019-02-04T03:01:32.642Z,11.40
2019-02-04T03:04:01.735Z,11.53
2019-02-04T03:06:30.788Z,12.67
2019-02-04T03:08:59.624Z,11.33
2019-02-04T03:11:28.439Z,11.00
2019-02-04T03:13:57.854Z,11.77
2019-02-04T03:16:27.009Z,11.40
2019-02-04T03:18:55.795Z,11.30
2019-02-04T03:21:24.979Z,12.57
2019-02-04T03:23:54.400Z,12.27
2019-02-04T03:26:23.191Z,13.27
2019-02-04T03:28:52.436Z,12.13
2019-02-04T03:31:21.265Z,13.87
2019-02-04T03:33:50.165Z,11.73
2019-02-04T03:36:19.314Z,12.00
2019-02-04T03:38:48.151Z,13.97
2019-02-04T03:41:16.942Z,12.53
2019-02-04T03:43:46.158Z,13.10
2019-02-04T03:46:15.056Z,12.47
2019-02-04T03:48:43.999Z,13.07
2019-02-04T03:51:12.905Z,13.43
2019-02-04T03:53:41.820Z,13.40
2019-02-04T03:56:10.815Z,13.30
2019-02-04T03:58:39.800Z,12.50
2019-02-04T04:01:08.987Z,13.93
2019-02-04T04:03:37.904Z,15.37
2019-02-04T04:06:07.147Z,12.60
2019-02-04T04:08:36.702Z,13.97
2019-02-04T04:11:05.715Z,13.50
2019-02-04T04:13:34.627Z,13.33
2019-02-04T04:16:03.616Z,11.70
2019-02-04T04:18:32.428Z,11.80
2019-02-04T04:21:01.392Z,12.80
2019-02-04T04:23:30.311Z,13.30
2019-02-04T04:25:59.151Z,11.40
2019-02-04T04:28:28.708Z,12.57
2019-02-04T04:30:57.935Z,14.63
2019-02-04T04:33:27.027Z,13.20
2019-02-04T04:35:55.899Z,12.80
2019-02-04T04:38:24.713Z,15.40
2019-02-04T04:40:53.903Z,13.60
2019-02-04T04:43:23.006Z,12.60
2019-02-04T04:45:51.819Z,12.97
2019-02-04T04:48:26.656Z,11.80
2019-02-04T04:50:51.930Z,10.80
2019-02-04T04:53:20.719Z,13.00
2019-02-04T04:55:49.813Z,12.17
2019-02-04T04:58:18.918Z,12.90
2019-02-04T05:00:47.749Z,10.20
2019-02-04T05:03:16.700Z,9.97
2019-02-04T05:05:45.575Z,12.73
2019-02-04T05:08:14.510Z,14.10
2019-02-04T05:10:43.650Z,12.50
2019-02-04T05:13:12.484Z,12.30
2019-02-04T05:15:41.425Z,12.20
2019-02-04T05:18:10.352Z,10.80
2019-02-04T05:20:39.217Z,12.07
2019-02-04T05:23:08.076Z,14.47
2019-02-04T05:25:37.446Z,11.10
2019-02-04T05:28:06.319Z,12.00
2019-02-04T05:30:35.243Z,12.43
2019-02-04T05:33:04.148Z,12.50
2019-02-04T05:35:33.063Z,12.50
2019-02-04T05:38:01.912Z,11.90
2019-02-04T05:40:31.020Z,13.93
2019-02-04T05:42:59.917Z,13.00
2019-02-04T05:45:28.964Z,12.10
2019-02-04T05:47:57.836Z,13.37
2019-02-04T05:50:26.652Z,13.40
2019-02-04T05:52:55.592Z,12.80
2019-02-04T05:55:25.282Z,11.87
2019-02-04T05:57:54.063Z,12.53
2019-02-04T06:00:35.336Z,13.93
2019-02-04T06:03:04.289Z,13.40
2019-02-04T06:05:33.319Z,15.07
2019-02-04T06:08:02.449Z,12.40
2019-02-04T06:10:31.839Z,13.53
2019-02-04T06:13:00.915Z,12.93
2019-02-04T06:15:30.086Z,10.87
2019-02-04T06:17:59.156Z,11.50
2019-02-04T06:20:28.174Z,12.27
2019-02-04T06:22:57.954Z,13.57
2019-02-04T06:25:27.070Z,13.50
2019-02-04T06:27:55.921Z,13.50
2019-02-04T06:30:24.763Z,12.37
2019-02-04T06:32:53.609Z,11.63
2019-02-04T06:35:22.925Z,11.70
2019-02-04T06:37:52.047Z,13.37
2019-02-04T06:40:21.143Z,11.50
2019-02-04T06:42:50.139Z,11.60
2019-02-04T06:45:19.231Z,12.33
2019-02-04T06:47:49.140Z,11.63
2019-02-04T06:50:18.387Z,12.00
2019-02-04T06:52:47.444Z,12.30
2019-02-04T06:55:25.044Z,10.70
2019-02-04T06:57:53.889Z,13.80
2019-02-04T07:00:22.903Z,12.90
2019-02-04T07:02:51.714Z,12.03
2019-02-04T07:05:20.937Z,11.43
2019-02-04T07:07:49.976Z,12.27
2019-02-04T07:10:21.240Z,12.60
2019-02-04T07:12:50.888Z,11.37
2019-02-04T07:15:19.717Z,14.83
2019-02-04T07:17:48.939Z,12.27
2019-02-04T07:20:23.197Z,12.73
2019-02-04T07:22:52.587Z,11.67
2019-02-04T07:25:22.987Z,12.80
2019-02-04T07:27:52.294Z,13.60
2019-02-04T07:30:25.894Z,13.00
2019-02-04T07:32:55.476Z,12.30
2019-02-04T07:35:24.592Z,12.37
2019-02-04T07:37:53.748Z,14.07
2019-02-04T07:40:24.948Z,14.33
2019-02-04T07:42:54.323Z,11.97
2019-02-04T07:45:24.330Z,12.57
2019-02-04T07:47:53.303Z,13.17
2019-02-04T07:50:23.601Z,14.80
2019-02-04T07:52:52.817Z,13.77
2019-02-04T07:55:21.740Z,13.77
2019-02-04T07:57:51.668Z,16.07
2019-02-04T08:00:22.691Z,13.63
2019-02-04T08:02:51.857Z,12.90
2019-02-04T08:05:20.758Z,11.60
2019-02-04T08:07:49.769Z,12.83
2019-02-04T08:10:19.186Z,15.87
2019-02-04T08:12:48.095Z,13.70
2019-02-04T08:15:22.918Z,14.47
2019-02-04T08:17:52.128Z,13.80
2019-02-04T08:20:22.801Z,12.43
2019-02-04T08:22:52.029Z,13.73
2019-02-04T08:25:20.969Z,13.27
2019-02-04T08:27:50.748Z,13.00
2019-02-04T08:30:26.327Z,13.80
2019-02-04T08:32:56.382Z,13.03
2019-02-04T08:35:25.323Z,13.60
2019-02-04T08:37:54.147Z,15.10
2019-02-04T08:40:23.129Z,14.17
2019-02-04T08:42:53.244Z,13.20
2019-02-04T08:45:22.190Z,13.83
2019-02-04T08:47:52.419Z,14.77
2019-02-04T08:50:21.603Z,12.73
2019-02-04T08:52:50.563Z,14.13
2019-02-04T08:55:19.584Z,13.03
2019-02-04T08:57:48.629Z,13.30
2019-02-04T09:00:19.446Z,11.93
2019-02-04T09:02:48.525Z,11.33
2019-02-04T09:05:17.715Z,13.20
2019-02-04T09:07:46.703Z,14.70
2019-02-04T09:10:21.279Z,13.93
2019-02-04T09:12:50.677Z,12.00
2019-02-04T09:15:19.772Z,13.37
2019-02-04T09:17:48.883Z,11.67
2019-02-04T09:20:18.080Z,13.13
2019-02-04T09:22:47.105Z,12.67
2019-02-04T09:25:17.137Z,13.33
2019-02-04T09:27:46.331Z,11.70
2019-02-04T09:30:17.567Z,12.90
2019-02-04T09:32:46.551Z,12.13
2019-02-04T09:35:16.446Z,11.97
2019-02-04T09:37:45.264Z,11.93
2019-02-04T09:40:27.048Z,11.37
2019-02-04T09:42:56.502Z,11.60
2019-02-04T09:45:27.745Z,10.43
2019-02-04T09:47:56.245Z,11.83
2019-02-04T09:50:25.522Z,13.30
2019-02-04T09:52:54.327Z,10.53
2019-02-04T09:55:29.435Z,12.03
2019-02-04T09:58:00.068Z,11.13
2019-02-04T10:00:30.610Z,10.53
2019-02-04T10:02:59.491Z,11.10
2019-02-04T10:05:28.520Z,11.17
2019-02-04T10:07:57.511Z,10.13
2019-02-04T10:10:27.005Z,11.83
2019-02-04T10:12:56.014Z,8.73
2019-02-04T10:15:29.894Z,9.93
2019-02-04T10:17:58.928Z,8.80
2019-02-04T10:20:34.348Z,9.40
2019-02-04T10:22:59.061Z,9.43
2019-02-04T10:25:29.997Z,7.70
2019-02-04T10:27:59.048Z,8.60
2019-02-04T10:30:28.526Z,9.00
2019-02-04T10:32:58.802Z,9.20
2019-02-04T10:35:28.084Z,8.60
2019-02-04T10:37:57.123Z,11.37
2019-02-04T10:40:26.839Z,7.63
2019-02-04T10:42:55.798Z,8.17
2019-02-04T10:45:24.997Z,8.30
2019-02-04T10:47:54.225Z,7.00
2019-02-04T10:50:31.591Z,6.50
2019-02-04T10:53:00.588Z,7.00
2019-02-04T10:55:29.630Z,5.93
2019-02-04T10:57:58.769Z,7.90
2019-02-04T11:00:30.634Z,7.57
2019-02-04T11:02:59.896Z,5.50
2019-02-04T11:05:30.573Z,5.83
2019-02-04T11:07:59.788Z,6.93
2019-02-04T11:10:33.118Z,6.50
2019-02-04T11:13:02.480Z,5.63
2019-02-04T11:15:31.973Z,6.80
2019-02-04T11:18:01.449Z,9.53
2019-02-04T11:20:31.348Z,6.40
2019-02-04T11:23:00.570Z,6.00
2019-02-04T11:25:29.495Z,5.83
2019-02-04T11:27:58.485Z,6.00
2019-02-04T11:30:30.250Z,5.00
2019-02-04T11:32:59.830Z,6.00
2019-02-04T11:35:28.845Z,5.90
2019-02-04T11:37:57.888Z,4.47
2019-02-04T11:40:32.655Z,4.13
2019-02-04T11:43:01.538Z,5.53
2019-02-04T11:45:31.013Z,6.43
2019-02-04T11:48:00.119Z,4.50
2019-02-04T11:50:29.317Z,4.60
2019-02-04T11:52:58.880Z,5.83
2019-02-04T11:55:28.043Z,4.70
2019-02-04T11:57:57.831Z,4.13
2019-02-04T12:00:29.096Z,4.57
2019-02-04T12:02:59.396Z,5.90
2019-02-04T12:05:28.643Z,4.40
2019-02-04T12:07:57.693Z,4.70
2019-02-04T12:10:29.582Z,4.77
2019-02-04T12:12:58.980Z,4.53
2019-02-04T12:15:27.943Z,4.57
2019-02-04T12:17:57.207Z,3.90
2019-02-04T12:20:26.858Z,5.27
2019-02-04T12:22:55.928Z,4.73
2019-02-04T12:25:25.808Z,6.57
2019-02-04T12:27:55.569Z,4.67
2019-02-04T12:30:31.092Z,4.07
2019-02-04T12:33:00.266Z,4.93
2019-02-04T12:35:29.530Z,4.20
2019-02-04T12:37:58.417Z,3.80
2019-02-04T12:40:27.518Z,3.93
2019-02-04T12:42:56.479Z,3.80
2019-02-04T12:45:30.532Z,4.70
2019-02-04T12:48:01.045Z,3.83
2019-02-04T12:50:30.032Z,4.13
2019-02-04T12:52:58.899Z,4.70
2019-02-04T12:55:29.155Z,6.23
2019-02-04T12:57:58.050Z,3.83
2019-02-04T13:00:28.224Z,4.87
2019-02-04T13:02:57.171Z,3.97
2019-02-04T13:05:31.816Z,3.53
2019-02-04T13:08:00.835Z,3.63
2019-02-04T13:11:06.808Z,2.70
2019-02-04T13:13:36.088Z,3.23
2019-02-04T13:16:05.647Z,3.33
2019-02-04T13:18:34.436Z,2.90
2019-02-04T13:21:03.349Z,5.03
2019-02-04T13:23:32.237Z,4.70
2019-02-04T13:26:01.295Z,4.83
2019-02-04T13:28:30.223Z,3.50
2019-02-04T13:30:59.680Z,3.77
2019-02-04T13:33:28.551Z,3.13
2019-02-04T13:35:57.427Z,5.70
2019-02-04T13:38:26.553Z,5.03
2019-02-04T13:41:07.200Z,4.07
2019-02-04T13:43:27.976Z,3.57
2019-02-04T13:45:57.688Z,2.77
2019-02-04T13:48:26.720Z,3.70
2019-02-04T13:50:57.670Z,3.40
2019-02-04T13:53:27.185Z,4.67
2019-02-04T13:55:56.374Z,6.00
2019-02-04T13:58:25.475Z,2.70
2019-02-04T14:00:54.360Z,4.80
2019-02-04T14:03:23.315Z,4.07
2019-02-04T14:05:52.637Z,3.10
2019-02-04T14:08:21.608Z,5.00
2019-02-04T14:10:50.816Z,4.70
2019-02-04T14:13:19.692Z,4.70
2019-02-04T14:15:48.558Z,3.27
2019-02-04T14:18:17.536Z,3.60
2019-02-04T14:20:46.537Z,3.80
2019-02-04T14:23:15.503Z,3.47
2019-02-04T14:25:45.446Z,3.90
2019-02-04T14:28:14.809Z,2.40
2019-02-04T14:30:44.066Z,3.07
2019-02-04T14:33:12.954Z,3.70
2019-02-04T14:35:41.879Z,3.90
2019-02-04T14:38:10.829Z,3.27
2019-02-04T14:40:39.846Z,4.10
2019-02-04T14:43:22.531Z,4.40
2019-02-04T14:46:40.679Z,5.30
2019-02-04T14:49:38.642Z,2.83
2019-02-04T14:53:02.768Z,3.47
2019-02-04T14:56:18.303Z,4.00
2019-02-04T14:59:02.637Z,3.53
2019-02-04T15:01:48.947Z,3.73
2019-02-04T15:04:34.304Z,3.17
2019-02-04T15:07:47.003Z,3.63
2019-02-04T15:11:05.646Z,3.17
2019-02-04T15:14:11.506Z,3.37
2019-02-04T15:17:14.105Z,2.60
2019-02-04T15:20:28.498Z,3.27
2019-02-04T15:23:15.458Z,2.70
2019-02-04T15:26:18.925Z,3.03
2019-02-04T15:29:21.347Z,4.37
2019-02-04T15:32:20.738Z,4.60
2019-02-04T15:35:14.590Z,3.47
2019-02-04T15:37:51.934Z,11.47
2019-02-04T15:40:48.453Z,4.30
2019-02-04T15:43:53.371Z,18.87
2019-02-04T15:46:46.343Z,4.03
2019-02-04T15:49:54.090Z,3.23
2019-02-04T15:52:23.052Z,4.17
2019-02-04T15:54:52.094Z,3.50
2019-02-04T15:57:21.539Z,3.80
2019-02-04T15:59:50.535Z,3.33
2019-02-04T16:02:19.432Z,3.90
2019-02-04T16:04:48.248Z,3.60
2019-02-04T16:07:17.331Z,3.73
2019-02-04T16:09:46.141Z,3.30
2019-02-04T16:12:15.735Z,3.90
2019-02-04T16:14:44.783Z,2.93
2019-02-04T16:17:13.744Z,3.37
2019-02-04T16:19:42.716Z,5.23
2019-02-04T16:22:11.634Z,3.40
2019-02-04T16:24:40.571Z,3.50
2019-02-04T16:27:09.832Z,3.40
2019-02-04T16:29:38.743Z,5.50
2019-02-04T16:32:08.383Z,3.83
2019-02-04T16:34:37.323Z,4.33
2019-02-04T16:37:06.351Z,3.13
2019-02-04T16:39:35.299Z,3.50
2019-02-04T16:42:04.736Z,3.23
2019-02-04T16:44:33.824Z,3.97
2019-02-04T16:47:02.848Z,5.20
2019-02-04T16:49:32.044Z,5.50
2019-02-04T16:52:00.908Z,4.40
2019-02-04T16:54:29.812Z,3.87
2019-02-04T16:56:59.011Z,5.10
2019-02-04T16:59:27.820Z,4.27
2019-02-04T17:01:56.703Z,3.97
2019-02-04T17:04:25.686Z,3.83
2019-02-04T17:06:54.881Z,4.10
2019-02-04T17:09:24.206Z,4.53
2019-02-04T17:11:53.509Z,4.23
2019-02-04T17:14:22.486Z,4.57
2019-02-04T17:16:51.408Z,4.00
2019-02-04T17:19:20.249Z,4.67
2019-02-04T17:21:49.188Z,3.27
2019-02-04T17:24:18.332Z,4.53
2019-02-04T17:26:47.252Z,3.83
2019-02-04T17:29:16.363Z,6.83
2019-02-04T17:31:45.347Z,5.10
2019-02-04T17:34:14.651Z,4.67
2019-02-04T17:36:43.602Z,4.00
2019-02-04T17:39:12.756Z,7.20
2019-02-04T17:41:41.757Z,3.70
2019-02-04T17:44:10.709Z,3.87
2019-02-04T17:46:39.576Z,3.10
2019-02-04T17:49:08.585Z,3.13
2019-02-04T17:51:37.923Z,3.50
2019-02-04T17:54:06.813Z,2.20
2019-02-04T17:56:35.861Z,2.83
2019-02-04T17:59:05.089Z,3.00
2019-02-04T18:01:34.319Z,4.20
2019-02-04T18:04:03.490Z,2.90
2019-02-04T18:06:32.491Z,2.77
2019-02-04T18:09:01.368Z,3.87
2019-02-04T18:11:30.341Z,3.73
2019-02-04T18:13:59.331Z,3.27
2019-02-04T18:16:28.424Z,4.30
2019-02-04T18:18:57.336Z,3.67
2019-02-04T18:21:26.270Z,3.30
2019-02-04T18:23:55.136Z,4.07
2019-02-04T18:26:24.438Z,4.40
2019-02-04T18:28:55.026Z,3.83
2019-02-04T18:31:23.975Z,4.20
2019-02-04T18:33:53.044Z,3.57
2019-02-04T18:36:21.847Z,4.97
2019-02-04T18:38:50.691Z,5.73
2019-02-04T18:41:19.585Z,4.40
2019-02-04T18:43:48.542Z,4.03
2019-02-04T18:46:17.511Z,5.43
2019-02-04T18:48:46.783Z,5.87
2019-02-04T18:51:15.595Z,5.03
2019-02-04T18:53:44.440Z,5.53
2019-02-04T18:56:13.604Z,5.10
2019-02-04T18:58:42.530Z,6.17
2019-02-04T19:01:11.424Z,4.80
2019-02-04T19:03:40.396Z,5.73
2019-02-04T19:06:09.371Z,5.03
2019-02-04T19:08:38.396Z,4.73
2019-02-04T19:11:07.607Z,4.03
2019-02-04T19:13:36.655Z,5.33
2019-02-04T19:16:05.674Z,5.50
2019-02-04T19:18:34.794Z,5.23
2019-02-04T19:21:03.696Z,5.63
2019-02-04T19:23:32.679Z,6.20
2019-02-04T19:26:01.927Z,6.67
2019-02-04T19:28:31.159Z,4.90
2019-02-04T19:31:15.497Z,6.30
2019-02-04T19:33:44.370Z,5.80
2019-02-04T19:36:13.681Z,4.67
2019-02-04T19:38:43.125Z,5.73
2019-02-04T19:41:12.287Z,6.00
2019-02-04T19:43:41.227Z,6.10
2019-02-04T19:46:10.291Z,5.00
2019-02-04T19:48:39.511Z,6.50
2019-02-04T19:51:08.396Z,6.47
2019-02-04T19:53:37.636Z,6.90
2019-02-04T19:56:06.623Z,6.93
2019-02-04T19:58:35.494Z,5.77
2019-02-04T20:01:04.687Z,7.20
2019-02-04T20:03:33.620Z,5.33
2019-02-04T20:06:02.611Z,7.30
2019-02-04T20:08:32.124Z,5.80
2019-02-04T20:11:02.720Z,6.60
2019-02-04T20:13:31.876Z,5.40
2019-02-04T20:16:01.032Z,5.30
2019-02-04T20:18:29.851Z,7.10
2019-02-04T20:20:58.800Z,6.13
2019-02-04T20:23:28.050Z,6.27
2019-02-04T20:25:57.475Z,5.30
2019-02-04T20:28:26.603Z,5.13
2019-02-04T20:30:55.435Z,5.20
2019-02-04T20:33:24.567Z,6.80
2019-02-04T20:35:53.458Z,6.40
2019-02-04T20:38:22.481Z,5.97
2019-02-04T20:40:51.652Z,4.90
2019-02-04T20:43:20.680Z,6.37
2019-02-04T20:45:49.585Z,5.73
2019-02-04T20:48:18.630Z,5.53
2019-02-04T20:50:48.034Z,4.93
2019-02-04T20:53:16.995Z,5.20
2019-02-04T20:55:46.032Z,4.97
2019-02-04T20:58:15.592Z,5.63
2019-02-04T21:00:44.613Z,6.27
2019-02-04T21:03:13.948Z,5.37
2019-02-04T21:05:42.774Z,5.83
2019-02-04T21:08:11.672Z,5.80
2019-02-04T21:10:41.612Z,5.13
2019-02-04T21:13:10.936Z,5.83
2019-02-04T21:15:40.235Z,5.47
2019-02-04T21:18:09.213Z,5.73
2019-02-04T21:20:38.255Z,5.23
2019-02-04T21:23:07.540Z,4.73
2019-02-04T21:25:37.241Z,5.33
2019-02-04T21:28:06.334Z,4.27
2019-02-04T21:30:37.783Z,4.13
2019-02-04T21:33:07.394Z,4.43
2019-02-04T21:35:36.593Z,4.20
2019-02-04T21:38:06.151Z,5.17
2019-02-04T21:40:35.088Z,7.83
2019-02-04T21:43:04.340Z,4.27
2019-02-04T21:45:33.271Z,4.33
2019-02-04T21:48:02.227Z,5.83
2019-02-04T21:50:31.220Z,4.00
2019-02-04T21:53:00.672Z,4.37
2019-02-04T21:55:30.024Z,3.60
2019-02-04T21:57:58.897Z,4.53
2019-02-04T22:00:29.961Z,4.37
2019-02-04T22:02:58.966Z,3.83
2019-02-04T22:05:29.450Z,4.20
2019-02-04T22:07:58.445Z,5.20
2019-02-04T22:10:28.157Z,4.07
2019-02-04T22:12:57.189Z,3.70
2019-02-04T22:15:26.083Z,3.70
2019-02-04T22:17:55.235Z,4.03
2019-02-04T22:20:24.247Z,4.33
2019-02-04T22:22:53.088Z,4.53
2019-02-04T22:25:22.972Z,3.20
2019-02-04T22:27:52.180Z,3.90
2019-02-04T22:30:23.100Z,3.27
2019-02-04T22:32:52.359Z,3.27
2019-02-04T22:35:21.330Z,3.90
2019-02-04T22:37:50.632Z,4.13
2019-02-04T22:40:21.725Z,4.40
2019-02-04T22:42:50.916Z,2.90
2019-02-04T22:45:19.916Z,3.27
2019-02-04T22:47:49.593Z,2.73
2019-02-04T22:50:23.265Z,3.10
2019-02-04T22:52:52.824Z,3.33
2019-02-04T22:55:31.669Z,3.30
2019-02-04T22:57:52.788Z,3.90
2019-02-04T23:00:50.810Z,2.70
2019-02-04T23:03:21.355Z,3.30
2019-02-04T23:05:50.427Z,3.10
2019-02-04T23:08:19.317Z,3.47
2019-02-04T23:10:48.240Z,2.93
2019-02-04T23:13:17.326Z,4.60
2019-02-04T23:15:46.394Z,4.23
2019-02-04T23:18:15.567Z,3.70
2019-02-04T23:20:44.553Z,3.63
2019-02-04T23:23:13.489Z,3.37
2019-02-04T23:25:43.787Z,3.77
2019-02-04T23:28:13.208Z,3.27
2019-02-04T23:30:42.149Z,2.97
2019-02-04T23:33:11.027Z,3.73
2019-02-04T23:35:39.991Z,3.47
2019-02-04T23:38:08.960Z,3.93
2019-02-04T23:40:37.895Z,4.90
2019-02-04T23:43:06.966Z,3.80
2019-02-04T23:45:35.855Z,4.10
2019-02-04T23:48:05.373Z,4.23
2019-02-04T23:50:34.311Z,3.50
2019-02-04T23:53:03.290Z,3.60
2019-02-04T23:55:32.179Z,3.63
2019-02-04T23:58:01.035Z,3.87
